Time;durP1;ratioP1;P1;durP2;ratioP2;P2;SDS_P1;SDS_P2;PMS_P1;PMS_P2;Temp;Humidity;BMP_temperature;BMP_pressure;BME280_temperature;BME280_humidity;BME280_pressure;Samples;Min_cycle;Max_cycle;Signal;HPM_P1;HPM_P2
2022/02/02 00:01:03;;;;;;;8.28;5.30;;;;;;;8.42;53.09;98771.86;1754969;81;21025;-61
2022/02/02 00:03:30;;;;;;;8.93;6.33;;;;;;;8.42;53.08;98771.86;1719126;81;21041;-61
2022/02/02 00:06:10;;;;;;;9.95;6.75;;;;;;;8.41;53.06;98779.46;1724092;81;21613;-61
2022/02/02 00:08:34;;;;;;;6.87;5.62;;;;;;;8.41;53.05;98781.27;1706305;82;21112;-61
2022/02/02 00:13:57;;;;;;;7.12;5.30;;;;;;;8.40;53.04;98788.39;1729706;82;21182;-61
2022/02/02 00:19:03;;;;;;;7.47;5.95;;;;;;;8.38;52.99;98782.45;1731556;81;21662;-60
2022/02/02 00:21:38;;;;;;;7.53;5.95;;;;;;;8.37;52.97;98768.88;1700438;83;21538;-60
2022/02/02 00:23:59;;;;;;;10.78;6.20;;;;;;;8.35;52.96;98763.45;1693086;82;21062;-60
2022/02/02 00:26:33;;;;;;;8.33;6.22;;;;;;;8.35;52.96;98760.80;1730314;81;21518;-61
2022/02/02 00:28:58;;;;;;;8.73;6.60;;;;;;;8.34;52.96;98756.50;1731015;82;21109;-61
2022/02/02 00:31:26;;;;;;;7.90;5.87;;;;;;;8.33;52.95;98750.91;1724291;81;21164;-61
2022/02/02 00:33:56;;;;;;;7.47;5.83;;;;;;;8.33;52.95;98747.75;1713685;82;21062;-60
2022/02/02 00:36:23;;;;;;;7.72;6.25;;;;;;;8.33;52.95;98745.61;1733092;82;21198;-61
2022/02/02 00:38:46;;;;;;;8.55;5.80;;;;;;;8.32;52.92;98742.12;1711202;82;22098;-61
2022/02/02 00:41:13;;;;;;;8.60;5.80;;;;;;;8.31;52.91;98733.06;1717447;82;21042;-60
2022/02/02 00:43:41;;;;;;;6.10;5.37;;;;;;;8.31;52.91;98738.35;1731411;82;21085;-60
2022/02/02 00:46:07;;;;;;;9.85;6.47;;;;;;;8.30;52.87;98731.39;1764062;80;21541;-59
2022/02/02 00:48:35;;;;;;;9.20;6.20;;;;;;;8.30;52.88;98720.81;1738051;81;21094;-61
2022/02/02 00:51:01;;;;;;;8.45;6.10;;;;;;;8.30;52.85;98727.43;1743934;81;21592;-60
2022/02/02 00:53:27;;;;;;;8.98;5.83;;;;;;;8.29;52.87;98726.61;1708422;82;21529;-61
2022/02/02 00:55:54;;;;;;;7.17;5.75;;;;;;;8.28;52.82;98727.09;1752593;81;21755;-60
2022/02/02 00:58:23;;;;;;;9.18;6.47;;;;;;;8.28;52.83;98726.28;1744409;81;21030;-61
2022/02/02 01:00:50;;;;;;;10.65;6.12;;;;;;;8.27;52.83;98717.52;1721337;81;21333;-61
2022/02/02 01:03:18;;;;;;;8.70;6.17;;;;;;;8.27;52.80;98725.46;1750031;81;21517;-60
2022/02/02 01:05:45;;;;;;;7.78;6.17;;;;;;;8.27;52.79;98716.71;1745820;81;21141;-61
2022/02/02 01:08:41;;;;;;;7.53;6.08;;;;;;;8.27;52.78;98714.06;1747879;81;21081;-61
2022/02/02 01:10:57;;;;;;;7.53;6.10;;;;;;;8.26;52.76;98711.89;1749408;81;21404;-60
2022/02/02 01:28:41;;;;;;;8.83;6.17;;;;;;;8.22;52.66;98684.66;1718276;81;21096;-61
2022/02/02 01:31:08;;;;;;;8.53;6.25;;;;;;;8.22;52.64;98678.05;1717827;81;21025;-61
2022/02/02 01:33:34;;;;;;;9.98;7.67;;;;;;;8.20;52.64;98681.38;1716174;81;21707;-60
2022/02/02 01:36:02;;;;;;;10.88;7.87;;;;;;;8.18;52.62;98677.58;1756910;80;21540;-59
2022/02/02 01:38:32;;;;;;;13.65;9.53;;;;;;;8.19;52.61;98685.00;1730704;81;21053;-61
2022/02/02 01:41:03;;;;;;;14.87;11.15;;;;;;;8.17;52.63;98693.14;1766220;81;21627;-61
2022/02/02 01:43:30;;;;;;;16.20;11.15;;;;;;;8.16;52.63;98682.23;1747943;81;21048;-61
2022/02/02 01:46:01;;;;;;;16.02;10.82;;;;;;;8.16;52.59;98684.88;1761898;79;21025;-61
2022/02/02 01:53:42;;;;;;;15.95;11.08;;;;;;;8.15;52.55;98667.85;1750793;79;21072;-62
2022/02/02 01:55:57;;;;;;;15.72;11.40;;;;;;;8.15;52.51;98670.50;1736459;81;21585;-61
2022/02/02 01:58:50;;;;;;;13.30;10.65;;;;;;;8.14;52.49;98660.42;1754753;81;21557;-62
2022/02/02 02:01:05;;;;;;;14.50;11.00;;;;;;;8.08;52.47;98653.20;1765227;79;21009;-60
2022/02/02 02:03:32;;;;;;;14.25;10.28;;;;;;;8.13;52.46;98664.56;1738153;81;21061;-60
2022/02/02 02:05:58;;;;;;;13.88;10.58;;;;;;;8.12;52.46;98661.10;1739584;81;21041;-61
2022/02/02 02:08:25;;;;;;;14.68;11.12;;;;;;;8.11;52.42;98655.98;1756161;81;21013;-60
2022/02/02 02:10:52;;;;;;;15.20;11.05;;;;;;;8.10;52.43;98655.68;1766364;79;21064;-61
2022/02/02 02:13:37;;;;;;;13.80;10.65;;;;;;;8.10;52.42;98651.71;1739434;81;21107;-61
2022/02/02 02:15:47;;;;;;;17.57;11.80;;;;;;;8.08;52.42;98646.08;1728154;79;22253;-61
2022/02/02 02:18:14;;;;;;;16.37;11.55;;;;;;;8.08;52.42;98648.73;1725199;81;21548;-61
2022/02/02 02:20:41;;;;;;;16.70;12.40;;;;;;;8.07;52.41;98648.42;1730347;81;21631;-61
2022/02/02 02:23:08;;;;;;;16.37;12.28;;;;;;;8.07;52.39;98648.42;1739027;81;21580;-61
2022/02/02 02:25:39;;;;;;;16.35;13.40;;;;;;;8.06;52.37;98638.83;1753415;79;21036;-60
2022/02/02 02:30:51;;;;;;;17.37;13.58;;;;;;;8.06;52.34;98634.05;1687405;81;21057;-59
2022/02/02 02:36:35;;;;;;;18.07;14.43;;;;;;;8.04;52.31;98623.64;1751399;79;21054;-62
2022/02/02 02:38:53;;;;;;;19.12;14.85;;;;;;;8.03;52.30;98621.17;1733384;81;21164;-61
2022/02/02 02:56:19;;;;;;;19.82;14.20;;;;;;;7.96;52.23;98631.66;1816596;78;21217;-60
2022/02/02 02:59:05;;;;;;;21.40;15.75;;;;;;;7.94;52.23;98629.69;1798090;78;20996;-60
2022/02/02 03:01:49;;;;;;;19.42;14.70;;;;;;;7.93;52.25;98621.42;1776355;79;21061;-61
2022/02/02 03:31:39;;;;;;;15.80;12.15;;;;;;;7.83;52.15;98611.59;1762633;80;21026;-61
2022/02/02 03:50:39;;;;;;;16.77;12.45;;;;;;;7.78;52.04;98613.95;1775164;80;21149;-61
2022/02/02 03:58:09;;;;;;;16.97;11.63;;;;;;;7.76;52.03;98612.80;1789639;80;21088;-61
2022/02/02 04:05:40;;;;;;;15.83;11.35;;;;;;;7.74;51.99;98605.55;1796928;78;21177;-60
2022/02/02 04:08:24;;;;;;;17.12;11.00;;;;;;;7.74;51.98;98610.02;1798176;78;21447;-62
2022/02/02 04:10:38;;;;;;;15.45;10.80;;;;;;;7.74;51.97;98604.22;1804355;78;21120;-61
2022/02/02 04:57:03;;;;;;;11.05;8.75;;;;;;;7.61;51.73;98607.48;1767731;80;21138;-62
2022/02/02 05:12:07;;;;;;;11.20;8.63;;;;;;;7.57;51.68;98609.31;1795913;79;21010;-61
2022/02/02 05:23:09;;;;;;;10.85;8.08;;;;;;;7.56;51.61;98601.08;1781239;79;21140;-61
2022/02/02 05:41:34;;;;;;;10.40;7.80;;;;;;;7.53;51.53;98613.30;1796034;79;21565;-63
2022/02/02 05:49:21;;;;;;;10.20;7.58;;;;;;;7.51;51.52;98629.84;1787325;79;21928;-62
2022/02/02 05:53:58;;;;;;;11.30;7.50;;;;;;;7.50;51.48;98618.45;1749204;81;21042;-61
2022/02/02 05:56:24;;;;;;;10.63;7.20;;;;;;;7.50;51.48;98630.34;1752509;81;21073;-61
2022/02/02 05:58:50;;;;;;;9.68;7.05;;;;;;;7.52;51.47;98631.50;1767817;79;21084;-62
2022/02/02 06:01:18;;;;;;;8.85;6.72;;;;;;;7.52;51.46;98633.63;1758055;79;21218;-61
2022/02/02 06:03:53;;;;;;;9.63;6.85;;;;;;;7.52;51.43;98630.18;1757221;81;21044;-62
2022/02/02 06:06:24;;;;;;;9.75;7.45;;;;;;;7.53;51.41;98633.94;1759417;81;21089;-62
2022/02/02 06:08:52;;;;;;;8.13;6.80;;;;;;;7.52;51.38;98627.03;1757195;81;21030;-61
2022/02/02 06:11:24;;;;;;;9.83;6.78;;;;;;;7.53;51.38;98627.84;1752360;81;21060;-61
2022/02/02 06:13:55;;;;;;;8.43;6.72;;;;;;;7.53;51.35;98622.05;1751600;81;21144;-60
2022/02/02 06:16:24;;;;;;;7.35;6.00;;;;;;;7.54;51.35;98618.93;1755049;81;21060;-62
2022/02/02 06:18:55;;;;;;;8.90;6.47;;;;;;;7.54;51.34;98618.42;1748726;79;21536;-61
2022/02/02 06:21:18;;;;;;;9.33;7.12;;;;;;;7.54;51.32;98614.45;1757921;81;21107;-62
2022/02/02 06:23:50;;;;;;;10.55;7.50;;;;;;;7.56;51.31;98620.89;1758312;79;21065;-60
2022/02/02 06:26:17;;;;;;;9.15;6.42;;;;;;;7.57;51.31;98623.38;1747705;79;21131;-63
2022/02/02 06:28:44;;;;;;;7.72;6.50;;;;;;;7.58;51.28;98622.86;1751666;81;21032;-63
2022/02/02 06:31:14;;;;;;;9.48;6.85;;;;;;;7.58;51.26;98615.75;1750858;81;21107;-62
2022/02/02 06:33:42;;;;;;;8.93;6.45;;;;;;;7.61;51.22;98621.17;1764666;81;21065;-63
2022/02/02 06:36:10;;;;;;;8.30;6.15;;;;;;;7.61;51.20;98619.38;1757832;81;21108;-61
2022/02/02 06:38:41;;;;;;;9.08;6.03;;;;;;;7.63;51.17;98617.38;1770605;78;21789;-63
2022/02/02 06:41:08;;;;;;;8.60;6.30;;;;;;;7.65;51.14;98621.98;1778559;80;20973;-62
2022/02/02 06:43:36;;;;;;;8.40;6.70;;;;;;;7.66;51.09;98615.67;1770706;80;21022;-60
2022/02/02 06:46:03;;;;;;;9.33;6.83;;;;;;;7.67;51.07;98624.45;1763432;79;21017;-62
2022/02/02 06:48:33;;;;;;;10.05;6.25;;;;;;;7.68;51.04;98617.64;1782468;80;21640;-63
2022/02/02 06:51:15;;;;;;;7.60;5.67;;;;;;;7.70;51.00;98620.63;1788866;78;21147;-62
2022/02/02 06:53:54;;;;;;;8.20;6.60;;;;;;;7.72;50.97;98613.34;1810236;78;21722;-62
2022/02/02 06:56:41;;;;;;;8.65;6.60;;;;;;;7.74;50.94;98619.27;1824141;78;20998;-61
2022/02/02 07:04:54;;;;;;;8.75;6.20;;;;;;;7.77;51.27;98606.52;1815150;78;21142;-62
2022/02/02 07:12:26;;;;;;;9.18;6.20;;;;;;;7.81;51.20;98602.52;1813439;79;20971;-62
2022/02/02 07:15:12;;;;;;;10.18;6.75;;;;;;;7.83;51.15;98598.37;1795871;78;21044;-62
2022/02/02 07:20:10;;;;;;;7.15;6.08;;;;;;;7.87;51.06;98603.63;1791305;79;21060;-63
2022/02/02 07:22:46;;;;;;;7.55;5.87;;;;;;;7.89;51.02;98598.98;1770594;80;21044;-61
2022/02/02 07:28:20;;;;;;;8.05;6.10;;;;;;;7.93;50.91;98591.01;1790196;78;21115;-63
2022/02/02 07:31:24;;;;;;;8.40;6.00;;;;;;;7.96;50.88;98598.59;1780152;78;21148;-63
2022/02/02 07:33:07;;;;;;;7.95;5.45;;;;;;;7.98;50.86;98599.23;1760662;79;21134;-62
2022/02/02 07:35:45;;;;;;;9.18;6.17;;;;;;;8.00;50.79;98601.20;1790977;79;21036;-61
2022/02/02 07:38:09;;;;;;;9.05;6.60;;;;;;;8.02;50.76;98606.31;1802045;79;21005;-62
2022/02/02 07:40:36;;;;;;;9.20;6.70;;;;;;;8.04;50.70;98606.45;1792027;79;21053;-62
2022/02/02 07:43:04;;;;;;;7.92;6.20;;;;;;;8.06;50.66;98604.44;1789708;79;23110;-62
2022/02/02 07:45:31;;;;;;;8.63;6.20;;;;;;;8.09;50.63;98605.90;1786320;79;21043;-63
2022/02/02 07:48:00;;;;;;;8.65;6.45;;;;;;;8.11;50.59;98593.82;1797527;79;21024;-62
2022/02/02 07:50:32;;;;;;;8.60;6.28;;;;;;;8.12;50.54;98603.41;1794500;78;21084;-63
2022/02/02 07:53:06;;;;;;;9.18;6.53;;;;;;;8.16;50.53;98595.44;1800530;79;21087;-62
2022/02/02 07:55:29;;;;;;;8.28;5.78;;;;;;;8.18;50.51;98598.72;1795047;79;21085;-62
2022/02/02 07:57:58;;;;;;;8.85;6.25;;;;;;;8.20;50.50;98596.20;1796846;79;21565;-64
2022/02/02 08:00:24;;;;;;;8.90;6.33;;;;;;;8.22;50.48;98593.38;1788611;79;21026;-63
2022/02/02 08:05:21;;;;;;;11.57;6.72;;;;;;;8.29;50.48;98585.05;1799955;79;21540;-60
2022/02/02 08:07:58;;;;;;;7.33;5.87;;;;;;;8.32;50.42;98584.67;1783169;79;21130;-65
2022/02/02 08:10:19;;;;;;;8.90;5.90;;;;;;;8.36;50.44;98587.27;1783923;78;21112;-64
2022/02/02 08:12:48;;;;;;;8.83;6.28;;;;;;;8.39;50.41;98588.75;1789686;79;21040;-62
2022/02/02 08:15:13;;;;;;;8.15;5.78;;;;;;;8.41;50.38;98592.88;1801491;79;21018;-63
2022/02/02 08:17:40;;;;;;;7.80;6.03;;;;;;;8.45;50.36;98599.95;1789946;79;21064;-63
2022/02/02 08:20:07;;;;;;;7.28;5.85;;;;;;;8.46;50.34;98599.78;1794748;78;21599;-64
2022/02/02 08:22:38;;;;;;;7.53;5.78;;;;;;;8.51;50.31;98595.25;1805108;79;21445;-63
2022/02/02 08:25:04;;;;;;;7.72;6.00;;;;;;;8.55;50.27;98606.30;1794544;78;21075;-63
2022/02/02 08:27:37;;;;;;;8.13;5.92;;;;;;;8.58;50.26;98596.68;1785114;79;21061;-65
2022/02/02 08:30:00;;;;;;;7.40;6.10;;;;;;;8.62;50.20;98594.80;1781390;79;21037;-66
2022/02/02 08:32:30;;;;;;;7.92;6.05;;;;;;;8.64;50.15;98588.00;1785771;79;21058;-65
2022/02/02 08:34:58;;;;;;;10.48;5.80;;;;;;;8.67;50.12;98592.91;1792742;78;21035;-64
2022/02/02 08:37:30;;;;;;;9.30;6.83;;;;;;;8.69;50.10;98596.19;1796355;78;21040;-67
2022/02/02 08:40:10;;;;;;;8.10;6.05;;;;;;;8.71;50.04;98597.34;1815482;77;21600;-66
2022/02/02 08:42:25;;;;;;;8.38;5.55;;;;;;;8.72;50.01;98594.52;1813993;78;21054;-65
2022/02/02 08:45:10;;;;;;;8.90;6.17;;;;;;;8.73;49.99;98588.22;1792730;79;21802;-65
2022/02/02 08:47:21;;;;;;;8.38;6.55;;;;;;;8.74;49.95;98582.42;1795225;79;21065;-65
2022/02/02 08:49:54;;;;;;;8.28;6.00;;;;;;;8.76;49.91;98589.67;1797395;79;21537;-65
2022/02/02 08:52:15;;;;;;;7.67;5.65;;;;;;;8.78;49.91;98584.50;1789379;79;21040;-66
2022/02/02 08:54:45;;;;;;;8.28;5.97;;;;;;;8.76;49.86;98579.89;1783082;80;21068;-68
2022/02/02 08:58:18;;;;;;;8.60;5.80;;;;;;;8.78;49.85;98580.53;1796492;79;21113;-66
2022/02/02 08:59:51;;;;;;;8.95;6.30;;;;;;;8.78;49.84;98573.91;1771932;78;21075;-66
2022/02/02 09:02:16;;;;;;;8.93;6.28;;;;;;;8.79;49.80;98579.53;1795942;78;21099;-66
2022/02/02 09:07:25;;;;;;;9.70;5.90;;;;;;;8.80;49.80;98566.59;1807943;78;21057;-65
2022/02/02 09:10:12;;;;;;;10.70;6.67;;;;;;;8.81;49.80;98572.73;1809621;78;22053;-66
2022/02/02 09:25:58;;;;;;;9.10;5.80;;;;;;;8.90;49.81;98553.06;1807310;78;21063;-66
2022/02/02 09:36:17;;;;;;;11.00;6.62;;;;;;;9.04;49.81;98540.81;1815314;78;21229;-65
2022/02/02 09:38:43;;;;;;;10.55;6.28;;;;;;;9.08;49.82;98541.23;1798673;78;21458;-66
2022/02/02 09:43:59;;;;;;;9.50;6.92;;;;;;;9.16;49.76;98515.45;1817915;78;21112;-66
2022/02/02 09:46:29;;;;;;;10.55;7.03;;;;;;;9.23;49.71;98509.72;1820078;78;21043;-67
2022/02/02 09:48:56;;;;;;;12.30;6.78;;;;;;;9.30;49.71;98512.93;1774586;78;21204;-66
2022/02/02 09:51:30;;;;;;;9.15;6.30;;;;;;;9.38;49.66;98510.14;1802680;77;21038;-67
2022/02/02 09:54:00;;;;;;;10.23;6.97;;;;;;;9.46;49.61;98502.05;1813120;77;21133;-68
2022/02/02 09:56:49;;;;;;;10.13;6.85;;;;;;;9.53;49.57;98506.09;1816943;77;21153;-67
2022/02/02 09:59:23;;;;;;;8.90;6.58;;;;;;;9.60;49.50;98498.51;1815856;78;21510;-68
2022/02/02 10:09:24;;;;;;;8.88;6.47;;;;;;;9.79;49.35;98486.41;1821940;77;21073;-66
2022/02/02 10:14:17;;;;;;;9.73;6.58;;;;;;;9.84;49.28;98493.77;1819532;78;21325;-68
2022/02/02 10:16:45;;;;;;;;;;;;;;;9.84;49.25;98490.61;1826033;78;21984;-68
2022/02/02 10:19:20;;;;;;;8.73;6.33;;;;;;;9.87;49.18;98481.95;1791012;79;20188;-68
2022/02/02 10:21:47;;;;;;;8.55;6.85;;;;;;;9.88;49.16;98471.66;1783390;78;22075;-68
2022/02/02 10:24:13;;;;;;;8.55;7.12;;;;;;;9.89;49.13;98470.63;1785144;79;21075;-68
2022/02/02 10:26:49;;;;;;;9.95;7.05;;;;;;;9.91;49.12;98470.77;1792805;79;21145;-65
2022/02/02 10:29:16;;;;;;;9.53;6.42;;;;;;;9.94;49.06;98468.23;1793640;79;21035;-67
2022/02/02 10:31:49;;;;;;;8.28;6.17;;;;;;;9.96;49.03;98468.34;1791030;78;21040;-67
2022/02/02 10:34:21;;;;;;;7.40;6.10;;;;;;;10.00;49.00;98476.72;1770739;79;21024;-68
2022/02/02 10:37:20;;;;;;;9.63;6.78;;;;;;;10.01;48.98;98457.97;1792504;79;21267;-68
2022/02/02 10:39:48;;;;;;;9.83;6.58;;;;;;;10.02;48.95;98460.95;1793996;79;21171;-68
2022/02/02 10:42:41;;;;;;;8.98;6.62;;;;;;;10.04;48.91;98450.95;1785727;79;21124;-69
2022/02/02 10:45:30;;;;;;;6.33;5.53;;;;;;;10.06;48.90;98452.58;1780978;79;21226;-69
2022/02/02 10:48:03;;;;;;;7.85;6.40;;;;;;;10.08;48.88;98450.03;1788027;79;21045;-70
2022/02/02 10:50:30;;;;;;;7.97;6.37;;;;;;;10.10;48.85;98449.84;1780360;79;21029;-69
2022/02/02 10:56:01;;;;;;;8.75;6.03;;;;;;;10.16;48.79;98435.77;1768524;79;21057;-69
2022/02/02 11:06:38;;;;;;;8.50;6.42;;;;;;;10.36;48.69;98414.16;1782530;78;21164;-68
2022/02/02 11:09:08;;;;;;;10.45;5.85;;;;;;;10.42;48.71;98417.34;1810623;77;20970;-69
2022/02/02 11:11:41;;;;;;;6.87;5.90;;;;;;;10.46;48.69;98411.12;1810049;78;21007;-66
2022/02/02 11:14:34;;;;;;;8.88;6.15;;;;;;;10.51;48.69;98414.52;1782008;78;21007;-68
2022/02/02 11:17:20;;;;;;;8.68;6.08;;;;;;;10.55;48.68;98416.56;1803395;78;21025;-68
2022/02/02 11:19:51;;;;;;;7.60;5.87;;;;;;;10.57;48.67;98407.08;1808163;78;21061;-68
2022/02/02 11:22:32;;;;;;;7.10;6.05;;;;;;;10.61;48.64;98406.98;1812810;78;21033;-69
2022/02/02 11:25:06;;;;;;;8.45;6.00;;;;;;;10.65;48.64;98394.13;1809785;77;21106;-67
2022/02/02 11:27:43;;;;;;;10.10;5.97;;;;;;;10.65;48.62;98385.64;1814718;78;21370;-67
2022/02/02 11:30:29;;;;;;;7.78;5.87;;;;;;;10.67;48.62;98398.72;1806230;78;21159;-67
2022/02/02 11:33:03;;;;;;;6.87;5.35;;;;;;;10.67;48.65;98390.23;1777210;79;21103;-66
2022/02/02 11:35:49;;;;;;;9.18;5.78;;;;;;;10.69;48.64;98391.37;1802306;78;21045;-67
2022/02/02 11:38:30;;;;;;;7.40;6.10;;;;;;;10.69;48.62;98384.73;1779591;78;21030;-68
2022/02/02 11:43:58;;;;;;;8.28;6.42;;;;;;;10.69;48.60;98392.70;1789599;78;21019;-67
2022/02/02 11:50:03;;;;;;;7.35;5.97;;;;;;;10.70;48.59;98396.48;1809871;77;21046;-69
2022/02/02 11:52:42;;;;;;;9.08;6.25;;;;;;;10.68;48.62;98391.89;1787657;78;21053;-68
2022/02/02 11:55:16;;;;;;;7.60;5.80;;;;;;;10.67;48.64;98388.09;1807184;77;21181;-67
2022/02/02 11:58:12;;;;;;;7.50;5.70;;;;;;;10.66;48.63;98391.24;1809362;78;21123;-66
2022/02/02 12:00:46;;;;;;;10.88;6.58;;;;;;;10.66;48.63;98401.86;1807395;78;21837;-67
2022/02/02 12:03:19;;;;;;;9.88;6.62;;;;;;;10.64;48.65;98368.05;1724922;78;21052;-67
2022/02/02 12:55:39;;;;;;;7.30;6.00;;;;;;;10.61;48.56;98396.36;1785888;79;21099;-68
2022/02/02 12:56:57;;;;;;;8.40;6.33;;;;;;;10.59;48.54;98405.04;1770625;80;21558;-68
2022/02/02 13:02:15;;;;;;;8.30;5.42;;;;;;;10.59;48.53;98393.90;1754955;80;21491;-67
2022/02/02 13:04:46;;;;;;;7.55;5.92;;;;;;;10.59;48.51;98398.40;1768316;80;21109;-67
2022/02/02 13:07:16;;;;;;;7.55;5.35;;;;;;;10.60;48.52;98396.03;1755449;80;21171;-66
2022/02/02 13:09:47;;;;;;;8.40;5.95;;;;;;;10.59;48.51;98414.33;1775913;80;21492;-67
2022/02/02 13:12:23;;;;;;;7.42;5.53;;;;;;;10.59;48.51;98399.72;1776260;80;21108;-68
2022/02/02 13:15:12;;;;;;;8.30;6.12;;;;;;;10.59;48.51;98402.38;1772574;80;21333;-68
2022/02/02 13:17:54;;;;;;;7.47;5.75;;;;;;;10.58;48.48;98410.02;1783319;79;21001;-65
2022/02/02 13:20:17;;;;;;;7.35;5.65;;;;;;;10.56;48.50;98412.06;1769933;80;21461;-68
2022/02/02 13:22:51;;;;;;;7.25;6.10;;;;;;;10.55;48.53;98414.42;1767546;79;21041;-68
2022/02/02 13:25:31;;;;;;;7.80;6.00;;;;;;;10.52;48.55;98408.98;1765042;79;21092;-68
2022/02/02 13:27:59;;;;;;;8.08;6.28;;;;;;;10.50;48.54;98418.18;1770522;80;21076;-68
2022/02/02 13:30:49;;;;;;;8.40;5.70;;;;;;;10.49;48.59;98423.17;1772868;80;21053;-68
2022/02/02 13:33:15;;;;;;;7.37;5.53;;;;;;;10.46;48.61;98435.02;1768019;79;21150;-68
2022/02/02 13:35:54;;;;;;;8.05;6.30;;;;;;;10.43;48.63;98428.28;1765577;80;21055;-66
2022/02/02 13:38:35;;;;;;;9.55;6.50;;;;;;;10.40;48.69;98424.68;1775112;80;21321;-67
2022/02/02 13:44:05;;;;;;;6.87;5.58;;;;;;;10.35;48.77;98433.77;1776351;80;21198;-67
2022/02/02 13:54:05;;;;;;;8.33;5.97;;;;;;;10.21;48.94;98425.39;1786350;79;21058;-69
2022/02/02 13:57:42;;;;;;;8.05;6.10;;;;;;;10.18;48.98;98429.79;1791328;79;21521;-65
2022/02/02 13:59:25;;;;;;;8.75;5.70;;;;;;;10.15;49.00;98432.31;1764651;79;21507;-68
2022/02/02 14:01:45;;;;;;;9.08;5.92;;;;;;;10.11;49.04;98443.02;1788690;78;21081;-66
2022/02/02 14:04:29;;;;;;;8.50;6.42;;;;;;;10.09;49.09;98434.43;1778571;79;21007;-65
2022/02/02 14:26:08;;;;;;;10.28;6.90;;;;;;;9.88;49.38;98451.25;1782141;79;21097;-64
2022/02/02 14:31:14;;;;;;;9.48;5.87;;;;;;;9.83;49.45;98449.68;1779236;79;21522;-65
2022/02/02 14:33:44;;;;;;;8.55;5.85;;;;;;;9.81;49.46;98441.10;1774974;79;21030;-64
2022/02/02 14:36:12;;;;;;;8.43;6.20;;;;;;;9.79;49.50;98443.98;1788961;79;21039;-65
2022/02/02 14:41:14;;;;;;;7.55;5.80;;;;;;;9.77;49.52;98449.14;1776881;79;21697;-64
2022/02/02 14:43:52;;;;;;;10.43;5.80;;;;;;;9.75;49.54;98449.33;1775196;79;21031;-64
2022/02/02 14:46:04;;;;;;;8.53;6.17;;;;;;;9.75;49.54;98444.54;1789911;79;21059;-63
2022/02/02 14:48:35;;;;;;;8.45;6.67;;;;;;;9.75;49.56;98444.54;1786566;78;21007;-64
2022/02/02 15:32:03;;;;;;;9.05;6.35;;;;;;;9.48;50.20;98452.81;1749191;81;21018;-64
2022/02/02 15:34:36;;;;;;;8.58;6.33;;;;;;;9.44;50.21;98453.70;1760312;80;21022;-66
2022/02/02 15:39:39;;;;;;;9.25;6.60;;;;;;;9.43;50.23;98457.38;1756609;81;21138;-64
2022/02/02 15:58:13;;;;;;;10.13;6.60;;;;;;;9.35;50.29;98471.59;1761150;81;21025;-65
2022/02/02 16:03:29;;;;;;;8.13;6.10;;;;;;;9.34;50.31;98483.70;1758891;80;21037;-66
2022/02/02 16:05:55;;;;;;;9.93;6.72;;;;;;;9.32;50.33;98471.96;1713854;83;21160;-67
2022/02/02 16:08:23;;;;;;;8.70;6.37;;;;;;;9.31;50.33;98473.47;1688833;84;21503;-63
2022/02/02 16:13:28;;;;;;;9.23;7.25;;;;;;;9.29;50.36;98468.39;1702265;83;21037;-65
2022/02/02 16:15:43;;;;;;;10.75;6.65;;;;;;;9.28;50.37;98473.36;1749168;81;21039;-63
2022/02/02 16:18:33;;;;;;;9.30;7.00;;;;;;;9.27;50.36;98473.03;1755880;81;21062;-65
2022/02/02 16:31:52;;;;;;;10.28;7.08;;;;;;;9.24;50.43;98478.73;1742798;81;23287;-63
2022/02/02 16:34:43;;;;;;;8.33;6.80;;;;;;;9.23;50.42;98479.72;1735573;81;21030;-67
2022/02/02 16:36:46;;;;;;;9.23;7.05;;;;;;;9.21;50.45;98479.09;1745966;81;21019;-64
2022/02/02 16:39:16;;;;;;;10.38;7.28;;;;;;;9.21;50.47;98491.02;1741717;81;21054;-64
2022/02/02 16:44:25;;;;;;;9.85;7.12;;;;;;;9.18;50.48;98494.88;1735234;81;22322;-65
2022/02/02 16:46:52;;;;;;;9.68;6.97;;;;;;;9.18;50.51;98500.18;1754594;81;21571;-63
2022/02/02 16:49:19;;;;;;;9.45;7.00;;;;;;;9.18;50.52;98499.37;1749129;80;21022;-64
2022/02/02 16:51:46;;;;;;;10.08;7.70;;;;;;;9.17;50.52;98496.39;1756918;80;21091;-64
2022/02/02 16:54:25;;;;;;;13.88;7.33;;;;;;;9.16;50.52;98503.52;1738571;81;21019;-65
2022/02/02 16:57:24;;;;;;;10.68;7.28;;;;;;;9.16;50.53;98510.66;1734622;81;21138;-65
2022/02/02 17:24:30;;;;;;;10.23;7.17;;;;;;;9.05;50.70;98488.12;1750520;81;21141;-65
2022/02/02 17:29:47;;;;;;;9.45;7.47;;;;;;;9.04;50.75;98491.80;1728665;83;21054;-66
2022/02/02 17:34:25;;;;;;;11.22;8.03;;;;;;;9.02;50.77;98497.28;1734961;81;21007;-65
2022/02/02 17:37:02;;;;;;;10.53;7.42;;;;;;;9.02;50.79;98493.30;1748936;81;23276;-65
2022/02/02 17:39:20;;;;;;;12.28;7.95;;;;;;;9.02;50.80;98490.66;1747245;81;21019;-66
2022/02/02 17:42:25;;;;;;;10.63;7.45;;;;;;;9.02;50.82;98495.11;1745634;81;21526;-66
2022/02/02 18:03:48;;;;;;;10.08;6.90;;;;;;;8.99;50.86;98498.16;1746368;81;21150;-65
2022/02/02 18:19:40;;;;;;;9.63;7.30;;;;;;;8.95;50.95;98490.27;1758375;81;21046;-63
2022/02/02 18:21:58;;;;;;;10.38;7.15;;;;;;;8.94;50.96;98492.59;1739331;81;21062;-64
2022/02/02 18:24:31;;;;;;;9.73;7.30;;;;;;;8.94;50.97;98492.59;1752303;81;21024;-63
2022/02/02 18:27:09;;;;;;;10.05;7.08;;;;;;;8.94;50.99;98498.70;1739799;81;20992;-65
2022/02/02 18:34:56;;;;;;;10.58;7.75;;;;;;;8.94;50.99;98500.03;1746755;81;21033;-65
2022/02/02 18:50:09;;;;;;;9.85;7.45;;;;;;;8.93;51.02;98499.72;1758441;81;21077;-65
2022/02/02 18:55:14;;;;;;;9.33;6.42;;;;;;;8.93;51.04;98505.53;1755560;81;21115;-65
2022/02/02 19:00:28;;;;;;;9.95;7.15;;;;;;;8.92;51.07;98513.96;1752163;81;22046;-65
2022/02/02 19:03:08;;;;;;;13.15;8.18;;;;;;;8.92;51.07;98509.18;1752261;81;21046;-66
2022/02/02 19:38:30;;;;;;;8.83;7.30;;;;;;;8.86;51.20;98512.07;1746633;81;21558;-66
2022/02/02 19:40:38;;;;;;;10.43;7.80;;;;;;;8.87;51.21;98515.56;1734304;81;20999;-65
2022/02/02 19:52:26;;;;;;;8.58;6.80;;;;;;;8.86;51.26;98518.69;1761113;81;21054;-65
2022/02/02 19:56:48;;;;;;;10.72;6.95;;;;;;;8.84;51.28;98514.09;1754358;81;21117;-66
2022/02/02 20:02:13;;;;;;;10.45;7.62;;;;;;;8.84;51.31;98525.49;1736351;81;21208;-65
2022/02/02 20:12:25;;;;;;;10.80;7.87;;;;;;;8.84;51.35;98517.55;1729729;81;21025;-67
2022/02/02 20:14:50;;;;;;;9.60;7.92;;;;;;;8.84;51.34;98529.97;1748470;81;21210;-66
2022/02/02 20:17:19;;;;;;;10.70;7.97;;;;;;;8.83;51.34;98525.19;1758925;81;21075;-67
2022/02/02 20:19:51;;;;;;;10.10;7.03;;;;;;;8.84;51.35;98522.84;1749377;80;21119;-67
2022/02/02 20:22:16;;;;;;;9.58;7.03;;;;;;;8.84;51.36;98531.30;1749561;81;21037;-67
2022/02/02 20:24:51;;;;;;;10.68;7.58;;;;;;;8.83;51.35;98521.22;1725517;81;21042;-65
2022/02/02 20:27:12;;;;;;;8.88;7.12;;;;;;;8.85;51.35;98531.12;1745158;81;21228;-65
2022/02/02 20:29:38;;;;;;;8.90;6.60;;;;;;;8.84;51.35;98517.55;1743449;81;21665;-65
2022/02/02 20:32:06;;;;;;;11.88;7.60;;;;;;;8.85;51.35;98518.39;1750246;81;21067;-64
2022/02/02 20:34:33;;;;;;;10.40;7.83;;;;;;;8.85;51.36;98517.88;1750947;81;21047;-66
2022/02/02 20:36:59;;;;;;;8.88;6.75;;;;;;;8.87;51.35;98526.16;1739397;81;21357;-65
2022/02/02 20:40:08;;;;;;;9.50;7.62;;;;;;;8.87;51.34;98528.80;1749073;81;22359;-65
2022/02/02 20:42:01;;;;;;;8.40;7.47;;;;;;;8.86;51.34;98526.64;1733971;81;21076;-66
2022/02/02 20:44:42;;;;;;;9.60;7.22;;;;;;;8.87;51.34;98521.67;1707465;83;21061;-66
2022/02/02 21:00:36;;;;;;;8.53;7.00;;;;;;;8.85;51.37;98532.44;1732581;81;21054;-65
2022/02/02 21:05:35;;;;;;;11.12;7.83;;;;;;;8.85;51.40;98542.23;1750429;80;21134;-63
2022/02/02 21:10:29;;;;;;;40.67;36.13;;;;;;;8.84;51.92;98480.47;1759597;81;20998;-62
2022/02/02 21:15:40;;;;;;;58.13;48.80;;;;;;;8.93;56.12;98550.56;1747765;81;21519;-63
2022/02/02 21:18:13;;;;;;;64.32;52.78;;;;;;;8.99;57.11;98555.92;1750280;81;21989;-68
2022/02/02 21:20:43;;;;;;;65.15;54.20;;;;;;;9.05;58.50;98561.79;1758620;81;21109;-65
2022/02/02 21:23:10;;;;;;;67.67;55.12;;;;;;;9.09;59.93;98562.75;1758181;81;21539;-65
2022/02/02 21:25:39;;;;;;;64.27;53.85;;;;;;;9.11;61.22;98560.73;1747794;81;21051;-65
2022/02/02 21:28:04;;;;;;;58.02;51.65;;;;;;;9.13;62.11;98554.74;1748273;81;21026;-63
2022/02/02 21:30:32;;;;;;;63.00;52.17;;;;;;;9.14;62.71;98555.88;1759563;81;21124;-63
2022/02/02 21:32:59;;;;;;;63.15;50.83;;;;;;;9.17;63.11;98553.36;1733910;82;21011;-65
2022/02/02 21:35:26;;;;;;;61.80;49.50;;;;;;;9.17;63.30;98559.47;1751175;81;21086;-65
2022/02/02 21:38:01;;;;;;;60.43;47.93;;;;;;;9.18;63.32;98557.66;1751591;79;21515;-68
2022/02/02 21:40:25;;;;;;;61.95;49.27;;;;;;;9.19;63.33;98552.66;1752193;81;21120;-66